Smorumnedre, Denmark
Current Conditions -  °F | °C
As of 6:20 PM on Wednesday 26 Nov 2014 (Local Time) from EKRK Reporting Station
Broken Clouds Broken Clouds  
Wind Chill: 40°   Ceiling: 1900
Heat Index: 43°   Visibility: 6mi
Dew Point: 39°   Wind: 5mph
Humidity: 87%   Direction: 150°SSE
Pressure: 30.21"   Gusts: NA
Location:  55.74°N, 12.3°E
Report Text: EKRK 261720Z AUTO 15004KT 120V180 9999NDV FEW015/// BKN019///06/04 Q1023
Loading
Personal Weather Stations






























Interactive Weather Map New forecast layout! Learn more

10-Day Weather Forecast

Advertisements
Track Severe Weather on mobile